createdAt,value
2022-12-28T00:00:57.726Z,2.80
2022-12-28T00:03:21.370Z,3.00
2022-12-28T00:05:44.647Z,2.90
2022-12-28T00:08:08.008Z,2.80
2022-12-28T00:11:07.912Z,3.13
2022-12-28T00:13:15.364Z,2.87
2022-12-28T00:15:40.407Z,3.80
2022-12-28T00:18:03.767Z,2.90
2022-12-28T00:20:27.022Z,2.60
2022-12-28T00:22:50.378Z,2.77
2022-12-28T00:25:13.702Z,3.00
2022-12-28T00:27:37.039Z,3.10
2022-12-28T00:30:00.402Z,3.30
2022-12-28T00:32:25.121Z,3.20
2022-12-28T00:34:49.967Z,3.23
2022-12-28T00:37:13.461Z,2.77
2022-12-28T00:39:37.266Z,2.73
2022-12-28T00:42:01.996Z,3.00
2022-12-28T00:44:26.724Z,2.50
2022-12-28T00:46:50.016Z,2.50
2022-12-28T00:49:16.008Z,2.50
2022-12-28T00:51:39.519Z,2.40
2022-12-28T00:54:03.079Z,2.50
2022-12-28T00:56:26.459Z,2.50
2022-12-28T00:58:50.303Z,2.70
2022-12-28T01:01:16.680Z,3.03
2022-12-28T01:03:39.981Z,2.40
2022-12-28T01:06:08.425Z,2.97
2022-12-28T01:08:32.950Z,2.33
2022-12-28T01:10:56.544Z,2.87
2022-12-28T01:13:19.886Z,2.93
2022-12-28T01:15:43.158Z,2.50
2022-12-28T01:18:06.981Z,3.10
2022-12-28T01:20:30.462Z,2.40
2022-12-28T01:22:55.098Z,2.40
2022-12-28T01:25:18.403Z,2.60
2022-12-28T01:27:41.635Z,2.40
2022-12-28T01:30:05.480Z,2.50
2022-12-28T01:32:28.731Z,2.70
2022-12-28T01:34:52.111Z,3.00
2022-12-28T01:37:15.600Z,2.60
2022-12-28T01:39:40.231Z,2.77
2022-12-28T01:42:03.575Z,3.00
2022-12-28T01:44:45.534Z,2.40
2022-12-28T01:47:15.000Z,2.27
2022-12-28T01:49:42.309Z,2.47
2022-12-28T01:52:09.700Z,3.47
2022-12-28T01:54:40.292Z,2.57
2022-12-28T01:57:05.186Z,2.90
2022-12-28T01:59:33.604Z,2.70
2022-12-28T02:01:57.752Z,2.27
2022-12-28T02:04:21.364Z,2.37
2022-12-28T02:06:44.899Z,2.50
2022-12-28T02:09:14.690Z,2.10
2022-12-28T02:11:39.823Z,2.40
2022-12-28T02:14:04.321Z,2.30
2022-12-28T02:16:27.751Z,2.03
2022-12-28T02:18:51.708Z,1.77
2022-12-28T02:21:26.173Z,2.13
2022-12-28T02:24:33.331Z,1.80
2022-12-28T02:27:03.804Z,2.00
2022-12-28T02:30:00.625Z,1.97
2022-12-28T02:32:41.849Z,1.48
2022-12-28T02:35:11.536Z,1.73
2022-12-28T02:37:43.186Z,1.80
2022-12-28T02:40:10.488Z,1.73
2022-12-28T02:42:37.901Z,1.60
2022-12-28T02:45:20.015Z,1.70
2022-12-28T02:48:02.303Z,2.00
2022-12-28T02:50:34.211Z,1.77
2022-12-28T02:53:33.480Z,2.00
2022-12-28T02:56:13.556Z,1.90
2022-12-28T02:59:12.406Z,1.97
2022-12-28T03:02:05.339Z,1.63
2022-12-28T03:04:42.734Z,1.65
2022-12-28T03:07:32.225Z,1.67
2022-12-28T03:10:06.983Z,1.67
2022-12-28T03:12:34.358Z,2.10
2022-12-28T03:15:04.221Z,1.80
2022-12-28T03:17:50.611Z,2.10
2022-12-28T03:20:40.214Z,1.55
2022-12-28T03:23:26.777Z,1.77
2022-12-28T03:26:10.044Z,1.73
2022-12-28T03:28:58.829Z,1.70
2022-12-28T03:31:26.430Z,1.90
2022-12-28T03:34:06.568Z,1.95
2022-12-28T03:36:44.048Z,1.90
2022-12-28T03:39:21.077Z,2.10
2022-12-28T03:41:51.359Z,1.83
2022-12-28T03:44:26.903Z,1.70
2022-12-28T03:46:58.425Z,1.90
2022-12-28T03:49:25.490Z,2.50
2022-12-28T03:51:50.180Z,2.00
2022-12-28T03:54:17.890Z,1.90
2022-12-28T03:56:47.697Z,1.67
2022-12-28T03:59:11.588Z,2.15
2022-12-28T04:01:38.539Z,2.00
2022-12-28T04:04:01.876Z,1.98
2022-12-28T04:06:26.802Z,1.98
2022-12-28T04:08:50.820Z,2.13
2022-12-28T04:11:14.863Z,1.97
2022-12-28T04:13:41.342Z,2.10
2022-12-28T04:16:10.975Z,2.00
2022-12-28T04:18:35.959Z,1.90
2022-12-28T04:21:00.031Z,2.30
2022-12-28T04:23:25.033Z,2.20
2022-12-28T04:26:02.116Z,2.05
2022-12-28T04:28:25.737Z,1.63
2022-12-28T04:31:11.951Z,2.22
2022-12-28T04:33:39.001Z,1.75
2022-12-28T04:36:06.810Z,2.03
2022-12-28T04:38:31.876Z,2.35
2022-12-28T04:40:55.123Z,1.95
2022-12-28T04:43:18.489Z,2.28
2022-12-28T04:45:41.749Z,2.57
2022-12-28T04:48:05.855Z,2.53
2022-12-28T04:50:30.056Z,2.00
2022-12-28T04:52:53.630Z,2.08
2022-12-28T04:55:32.338Z,2.00
2022-12-28T04:57:57.139Z,2.08
2022-12-28T05:00:20.421Z,2.25
2022-12-28T05:02:46.398Z,2.15
2022-12-28T05:05:10.286Z,2.22
2022-12-28T05:07:33.679Z,2.33
2022-12-28T05:09:57.075Z,2.10
2022-12-28T05:12:22.362Z,1.98
2022-12-28T05:14:45.739Z,2.38
2022-12-28T05:17:08.925Z,1.98
2022-12-28T05:19:32.196Z,2.20
2022-12-28T05:21:55.437Z,1.98
2022-12-28T05:24:20.451Z,2.03
2022-12-28T05:26:43.833Z,2.13
2022-12-28T05:29:08.515Z,2.00
2022-12-28T05:31:31.985Z,2.22
2022-12-28T05:33:55.900Z,1.95
2022-12-28T05:36:22.050Z,2.33
2022-12-28T05:38:45.463Z,2.10
2022-12-28T05:41:10.374Z,2.20
2022-12-28T05:43:33.897Z,2.50
2022-12-28T05:46:03.549Z,2.30
2022-12-28T05:48:26.904Z,2.42
2022-12-28T05:50:50.169Z,2.20
2022-12-28T05:53:13.491Z,1.95
2022-12-28T05:55:37.148Z,2.08
2022-12-28T05:58:00.411Z,2.10
2022-12-28T06:00:23.722Z,2.30
2022-12-28T06:02:48.745Z,1.98
2022-12-28T06:05:12.164Z,2.03
2022-12-28T06:07:35.473Z,2.55
2022-12-28T06:09:58.774Z,2.10
2022-12-28T06:12:22.142Z,2.20
2022-12-28T06:14:45.379Z,2.35
2022-12-28T06:17:08.648Z,1.73
2022-12-28T06:19:33.673Z,1.80
2022-12-28T06:21:57.031Z,1.77
2022-12-28T06:24:20.567Z,1.60
2022-12-28T06:26:43.906Z,2.00
2022-12-28T06:29:07.903Z,1.88
2022-12-28T06:31:33.646Z,2.00
2022-12-28T06:33:59.671Z,1.80
2022-12-28T06:36:27.276Z,1.70
2022-12-28T06:38:52.491Z,2.20
2022-12-28T06:41:17.706Z,1.92
2022-12-28T06:43:43.122Z,1.60
2022-12-28T06:46:07.846Z,2.00
2022-12-28T06:48:33.640Z,2.13
2022-12-28T06:50:58.450Z,1.73
2022-12-28T06:53:23.005Z,2.00
2022-12-28T06:55:54.887Z,1.80
2022-12-28T06:58:18.161Z,1.48
2022-12-28T07:00:41.465Z,2.03
2022-12-28T07:03:04.959Z,2.17
2022-12-28T07:05:28.172Z,1.67
2022-12-28T07:07:51.448Z,2.00
2022-12-28T07:10:16.565Z,1.60
2022-12-28T07:12:39.833Z,1.88
2022-12-28T07:15:03.180Z,1.50
2022-12-28T07:17:26.924Z,1.65
2022-12-28T07:19:51.326Z,1.27
2022-12-28T07:22:14.532Z,1.75
2022-12-28T07:24:37.899Z,1.70
2022-12-28T07:27:02.441Z,1.60
2022-12-28T07:29:25.705Z,1.92
2022-12-28T07:31:48.989Z,1.70
2022-12-28T07:34:12.517Z,1.65
2022-12-28T07:36:35.989Z,1.60
2022-12-28T07:39:00.816Z,1.65
2022-12-28T07:41:26.533Z,1.73
2022-12-28T07:43:51.850Z,1.35
2022-12-28T07:46:18.521Z,1.30
2022-12-28T07:48:43.105Z,1.38
2022-12-28T07:51:11.533Z,1.50
2022-12-28T07:53:34.855Z,1.77
2022-12-28T07:55:58.466Z,1.70
2022-12-28T07:58:22.164Z,1.27
2022-12-28T08:00:46.876Z,2.03
2022-12-28T08:03:10.227Z,1.20
2022-12-28T08:05:35.013Z,1.20
2022-12-28T08:08:03.403Z,1.40
2022-12-28T08:10:27.157Z,1.20
2022-12-28T08:12:50.445Z,1.10
2022-12-28T08:15:13.876Z,1.30
2022-12-28T08:17:38.453Z,1.52
2022-12-28T08:20:01.728Z,1.77
2022-12-28T08:22:25.849Z,1.23
2022-12-28T08:24:49.141Z,1.33
2022-12-28T08:27:12.424Z,1.20
2022-12-28T08:29:35.703Z,1.17
2022-12-28T08:31:58.948Z,1.35
2022-12-28T08:34:26.695Z,1.75
2022-12-28T08:36:50.579Z,1.08
2022-12-28T08:39:14.479Z,1.30
2022-12-28T08:41:37.807Z,1.50
2022-12-28T08:44:01.318Z,1.10
2022-12-28T08:46:26.791Z,1.45
2022-12-28T08:48:51.814Z,1.38
2022-12-28T08:51:19.251Z,1.27
2022-12-28T08:53:43.348Z,1.10
2022-12-28T08:56:10.361Z,1.33
2022-12-28T08:58:34.192Z,1.55
2022-12-28T09:00:57.776Z,1.48
2022-12-28T09:03:21.043Z,1.10
2022-12-28T09:05:44.351Z,1.23
2022-12-28T09:08:09.089Z,1.50
2022-12-28T09:10:32.498Z,1.15
2022-12-28T09:12:55.790Z,1.20
2022-12-28T09:15:19.137Z,1.30
2022-12-28T09:17:42.516Z,1.10
2022-12-28T09:20:07.231Z,1.10
2022-12-28T09:22:32.565Z,1.20
2022-12-28T09:24:57.119Z,0.98
2022-12-28T09:27:21.647Z,0.98
2022-12-28T09:29:44.865Z,1.00
2022-12-28T09:32:08.556Z,1.20
2022-12-28T09:34:36.807Z,1.10
2022-12-28T09:37:01.371Z,1.10
2022-12-28T09:39:25.334Z,1.20
2022-12-28T09:41:55.550Z,1.00
2022-12-28T09:44:51.288Z,1.00
2022-12-28T09:47:31.943Z,1.48
2022-12-28T09:50:25.722Z,1.00
2022-12-28T09:53:22.638Z,1.10
2022-12-28T09:55:56.707Z,1.17
2022-12-28T09:58:22.382Z,1.00
2022-12-28T10:00:56.769Z,0.90
2022-12-28T10:03:23.221Z,1.00
2022-12-28T10:05:47.229Z,1.10
2022-12-28T10:08:13.796Z,1.00
2022-12-28T10:10:37.128Z,1.10
2022-12-28T10:13:45.665Z,1.00
2022-12-28T10:15:58.826Z,1.00
2022-12-28T10:18:25.779Z,1.00
2022-12-28T10:20:49.681Z,0.93
2022-12-28T10:23:17.848Z,1.10
2022-12-28T10:25:41.432Z,0.90
2022-12-28T10:28:09.352Z,1.00
2022-12-28T10:30:32.559Z,0.93
2022-12-28T10:33:02.968Z,1.10
2022-12-28T10:35:29.843Z,1.10
2022-12-28T10:37:58.567Z,1.00
2022-12-28T10:40:28.294Z,1.58
2022-12-28T10:42:55.652Z,1.48
2022-12-28T10:45:21.084Z,1.10
2022-12-28T10:47:47.819Z,1.10
2022-12-28T10:50:45.701Z,1.00
2022-12-28T10:53:19.487Z,1.00
2022-12-28T10:55:42.835Z,1.10
2022-12-28T10:58:29.981Z,1.00
2022-12-28T11:00:57.544Z,1.17
2022-12-28T11:03:29.373Z,1.45
2022-12-28T11:06:19.936Z,1.00
2022-12-28T11:09:07.454Z,1.50
2022-12-28T11:11:30.977Z,1.13
2022-12-28T11:14:00.189Z,1.17
2022-12-28T11:16:23.532Z,1.25
2022-12-28T11:18:47.270Z,1.20
2022-12-28T11:21:18.204Z,1.10
2022-12-28T11:23:41.611Z,1.08
2022-12-28T11:26:05.614Z,1.13
2022-12-28T11:28:29.472Z,1.10
2022-12-28T11:30:55.497Z,1.20
2022-12-28T11:33:32.574Z,1.13
2022-12-28T11:35:59.837Z,1.23
2022-12-28T11:38:42.782Z,1.25
2022-12-28T11:41:06.920Z,1.30
2022-12-28T11:43:52.710Z,1.40
2022-12-28T11:46:41.437Z,1.33
2022-12-28T11:49:07.526Z,1.20
2022-12-28T11:51:32.419Z,1.15
2022-12-28T11:54:02.908Z,1.20
2022-12-28T11:56:29.062Z,1.73
2022-12-28T11:59:22.642Z,1.30
2022-12-28T12:01:58.385Z,1.58
2022-12-28T12:04:38.182Z,1.23
2022-12-28T12:07:31.617Z,1.30
2022-12-28T12:10:36.187Z,1.42
2022-12-28T12:13:00.708Z,1.60
2022-12-28T12:15:32.856Z,1.70
2022-12-28T12:18:02.316Z,1.20
2022-12-28T12:20:44.104Z,1.52
2022-12-28T12:23:13.401Z,1.40
2022-12-28T12:25:42.215Z,1.50
2022-12-28T12:28:17.762Z,1.20
2022-12-28T12:30:44.382Z,1.25
2022-12-28T12:33:15.525Z,1.70
2022-12-28T12:35:53.431Z,1.40
2022-12-28T12:38:33.007Z,1.10
2022-12-28T12:41:14.759Z,1.30
2022-12-28T12:43:53.803Z,1.80
2022-12-28T12:46:55.685Z,1.20
2022-12-28T12:49:51.032Z,0.98
2022-12-28T12:52:30.321Z,1.30
2022-12-28T12:55:11.748Z,1.20
2022-12-28T12:57:47.957Z,1.42
2022-12-28T13:00:16.589Z,1.50
2022-12-28T13:03:18.120Z,1.50
2022-12-28T13:05:48.363Z,1.77
2022-12-28T13:08:24.044Z,1.38
2022-12-28T13:10:47.633Z,1.27
2022-12-28T13:13:26.664Z,1.65
2022-12-28T13:15:50.312Z,1.10
2022-12-28T13:18:44.580Z,1.63
2022-12-28T13:21:12.116Z,1.65
2022-12-28T13:23:45.630Z,1.33
2022-12-28T13:26:13.931Z,1.33
2022-12-28T13:28:39.240Z,1.60
2022-12-28T13:31:10.884Z,1.50
2022-12-28T13:33:34.237Z,1.67
2022-12-28T13:36:14.842Z,1.30
2022-12-28T13:38:38.221Z,1.42
2022-12-28T13:41:03.395Z,1.60
2022-12-28T13:44:23.338Z,1.75
2022-12-28T13:46:54.313Z,1.65
2022-12-28T13:49:19.838Z,1.70
2022-12-28T13:51:48.370Z,1.35
2022-12-28T13:54:15.496Z,1.63
2022-12-28T13:56:40.689Z,1.85
2022-12-28T13:59:10.309Z,1.70
2022-12-28T14:01:40.362Z,1.88
2022-12-28T14:04:50.760Z,1.55
2022-12-28T14:06:52.920Z,1.65
2022-12-28T14:09:17.378Z,1.80
2022-12-28T14:11:42.277Z,1.73
2022-12-28T14:14:06.986Z,2.10
2022-12-28T14:16:32.455Z,1.60
2022-12-28T14:18:56.060Z,2.13
2022-12-28T14:21:34.792Z,1.92
2022-12-28T14:24:05.893Z,2.08
2022-12-28T14:26:30.439Z,1.90
2022-12-28T14:28:55.654Z,1.90
2022-12-28T14:31:24.040Z,2.03
2022-12-28T14:33:54.116Z,2.10
2022-12-28T14:36:24.250Z,2.17
2022-12-28T14:38:51.190Z,2.17
2022-12-28T14:41:20.431Z,1.80
2022-12-28T14:43:44.983Z,1.70
2022-12-28T14:46:19.950Z,1.85
2022-12-28T14:48:44.970Z,1.67
2022-12-28T14:51:29.107Z,1.77
2022-12-28T14:54:21.916Z,1.95
2022-12-28T14:56:47.163Z,1.88
2022-12-28T14:59:20.979Z,1.88
2022-12-28T15:01:47.436Z,1.85
2022-12-28T15:04:28.672Z,2.10
2022-12-28T15:06:53.366Z,2.10
2022-12-28T15:09:17.692Z,1.80
2022-12-28T15:11:42.362Z,1.83
2022-12-28T15:14:06.033Z,1.90
2022-12-28T15:16:29.997Z,1.70
2022-12-28T15:18:53.589Z,1.83
2022-12-28T15:21:20.568Z,1.92
2022-12-28T15:23:45.996Z,1.95
2022-12-28T15:26:10.236Z,2.25
2022-12-28T15:28:33.553Z,1.52
2022-12-28T15:30:56.941Z,2.00
2022-12-28T15:33:20.242Z,1.77
2022-12-28T15:35:43.493Z,2.10
2022-12-28T15:38:06.771Z,1.67
2022-12-28T15:40:31.402Z,2.13
2022-12-28T15:42:54.664Z,2.08
2022-12-28T15:45:18.875Z,1.60
2022-12-28T15:47:42.213Z,1.80
2022-12-28T15:50:07.187Z,1.63
2022-12-28T15:52:32.171Z,1.67
2022-12-28T15:54:55.430Z,1.70
2022-12-28T15:57:20.012Z,1.70
2022-12-28T15:59:43.286Z,1.40
2022-12-28T16:02:06.894Z,1.60
2022-12-28T16:04:30.338Z,1.60
2022-12-28T16:06:53.520Z,1.70
2022-12-28T16:09:16.793Z,1.30
2022-12-28T16:11:40.146Z,1.30
2022-12-28T16:14:07.231Z,1.38
2022-12-28T16:16:33.785Z,1.50
2022-12-28T16:18:58.747Z,1.88
2022-12-28T16:21:22.069Z,2.10
2022-12-28T16:23:46.675Z,1.85
2022-12-28T16:26:11.249Z,1.58
2022-12-28T16:28:34.802Z,1.65
2022-12-28T16:30:59.483Z,1.60
2022-12-28T16:33:24.362Z,1.35
2022-12-28T16:35:51.777Z,1.90
2022-12-28T16:38:20.066Z,1.48
2022-12-28T16:40:43.583Z,1.92
2022-12-28T16:43:07.163Z,1.58
2022-12-28T16:45:35.611Z,1.42
2022-12-28T16:48:00.230Z,1.70
2022-12-28T16:50:23.577Z,1.67
2022-12-28T16:52:46.941Z,1.83
2022-12-28T16:55:10.599Z,1.67
2022-12-28T16:57:34.277Z,1.83
2022-12-28T16:59:58.093Z,1.75
2022-12-28T17:02:22.077Z,1.70
2022-12-28T17:04:46.830Z,1.45
2022-12-28T17:07:10.052Z,1.48
2022-12-28T17:09:33.543Z,1.63
2022-12-28T17:11:56.835Z,1.80
2022-12-28T17:14:36.516Z,2.22
2022-12-28T17:17:03.498Z,2.15
2022-12-28T17:19:26.835Z,1.98
2022-12-28T17:21:51.557Z,1.73
2022-12-28T17:24:15.187Z,1.73
2022-12-28T17:26:38.625Z,1.77
2022-12-28T17:29:01.946Z,1.55
2022-12-28T17:31:25.493Z,1.88
2022-12-28T17:33:51.401Z,1.90
2022-12-28T17:36:15.070Z,1.90
2022-12-28T17:38:39.836Z,1.70
2022-12-28T17:41:09.412Z,2.30
2022-12-28T17:43:32.732Z,2.00
2022-12-28T17:45:57.296Z,2.28
2022-12-28T17:48:23.263Z,1.98
2022-12-28T17:50:47.117Z,2.20
2022-12-28T17:53:10.814Z,2.13
2022-12-28T17:55:37.204Z,2.10
2022-12-28T17:58:00.549Z,2.08
2022-12-28T18:00:24.042Z,1.90
2022-12-28T18:02:47.697Z,1.83
2022-12-28T18:05:11.759Z,2.20
2022-12-28T18:07:35.875Z,2.15
2022-12-28T18:09:59.119Z,2.00
2022-12-28T18:12:23.807Z,1.90
2022-12-28T18:14:47.059Z,2.00
2022-12-28T18:17:10.360Z,1.95
2022-12-28T18:19:33.648Z,1.70
2022-12-28T18:21:57.489Z,1.70
2022-12-28T18:24:21.114Z,2.05
2022-12-28T18:26:44.736Z,2.22
2022-12-28T18:29:09.376Z,2.10
2022-12-28T18:31:32.658Z,2.00
2022-12-28T18:33:56.058Z,2.13
2022-12-28T18:36:19.365Z,2.17
2022-12-28T18:38:43.544Z,2.15
2022-12-28T18:41:07.324Z,2.00
2022-12-28T18:43:31.152Z,2.30
2022-12-28T18:45:58.601Z,1.75
2022-12-28T18:48:22.044Z,2.17
2022-12-28T18:50:54.504Z,2.17
2022-12-28T18:53:17.768Z,1.98
2022-12-28T18:55:45.356Z,1.90
2022-12-28T18:58:09.014Z,2.10
2022-12-28T19:00:32.671Z,1.90
2022-12-28T19:02:57.420Z,2.08
2022-12-28T19:05:20.741Z,2.35
2022-12-28T19:07:49.161Z,1.90
2022-12-28T19:10:13.850Z,2.00
2022-12-28T19:12:37.359Z,1.70
2022-12-28T19:15:01.044Z,1.95
2022-12-28T19:17:24.359Z,1.50
2022-12-28T19:19:48.943Z,1.88
2022-12-28T19:22:12.253Z,1.98
2022-12-28T19:24:35.453Z,2.00
2022-12-28T19:26:58.733Z,1.80
2022-12-28T19:29:22.039Z,1.80
2022-12-28T19:31:45.716Z,1.70
2022-12-28T19:34:09.011Z,1.45
2022-12-28T19:36:33.716Z,1.88
2022-12-28T19:38:58.445Z,1.50
2022-12-28T19:41:21.677Z,1.70
2022-12-28T19:43:45.498Z,1.60
2022-12-28T19:46:13.107Z,1.40
2022-12-28T19:48:36.907Z,1.77
2022-12-28T19:51:00.686Z,1.60
2022-12-28T19:53:25.651Z,1.48
2022-12-28T19:55:48.916Z,1.60
2022-12-28T19:58:12.140Z,1.60
2022-12-28T20:00:35.709Z,1.42
2022-12-28T20:02:59.193Z,1.38
2022-12-28T20:05:22.615Z,1.42
2022-12-28T20:07:45.819Z,1.40
2022-12-28T20:10:10.995Z,1.70
2022-12-28T20:12:34.340Z,1.60
2022-12-28T20:14:57.648Z,1.42
2022-12-28T20:17:20.885Z,1.10
2022-12-28T20:19:44.143Z,1.30
2022-12-28T20:22:07.668Z,1.35
2022-12-28T20:24:30.969Z,1.23
2022-12-28T20:27:01.489Z,1.35
2022-12-28T20:29:25.447Z,1.13
2022-12-28T20:31:51.070Z,1.55
2022-12-28T20:34:14.499Z,1.30
2022-12-28T20:36:37.851Z,1.70
2022-12-28T20:39:01.314Z,1.80
2022-12-28T20:41:44.089Z,1.55
2022-12-28T20:44:11.941Z,1.58
2022-12-28T20:46:35.461Z,1.50
2022-12-28T20:48:59.257Z,1.25
2022-12-28T20:51:22.721Z,1.50
2022-12-28T20:53:46.249Z,1.70
2022-12-28T20:56:10.869Z,1.48
2022-12-28T20:58:34.143Z,1.58
2022-12-28T21:01:04.688Z,1.50
2022-12-28T21:03:28.114Z,1.58
2022-12-28T21:05:54.213Z,1.50
2022-12-28T21:08:17.476Z,1.45
2022-12-28T21:10:40.864Z,1.20
2022-12-28T21:13:04.126Z,1.65
2022-12-28T21:15:27.347Z,1.20
2022-12-28T21:17:52.080Z,1.38
2022-12-28T21:20:15.434Z,1.55
2022-12-28T21:22:38.791Z,1.50
2022-12-28T21:25:02.023Z,1.52
2022-12-28T21:27:25.405Z,1.35
2022-12-28T21:29:48.687Z,1.50
2022-12-28T21:32:12.062Z,1.40
2022-12-28T21:34:36.738Z,1.33
2022-12-28T21:37:20.837Z,1.40
2022-12-28T21:39:44.127Z,1.30
2022-12-28T21:42:07.399Z,1.38
2022-12-28T21:44:30.685Z,1.40
2022-12-28T21:46:54.728Z,1.30
2022-12-28T21:49:18.506Z,1.40
2022-12-28T21:51:43.360Z,1.20
2022-12-28T21:54:09.426Z,1.30
2022-12-28T21:56:33.837Z,1.20
2022-12-28T21:58:57.904Z,1.60
2022-12-28T22:01:38.964Z,1.40
2022-12-28T22:04:19.687Z,1.20
2022-12-28T22:06:44.370Z,1.10
2022-12-28T22:09:25.446Z,1.38
2022-12-28T22:12:06.247Z,1.20
2022-12-28T22:14:29.884Z,0.90
2022-12-28T22:16:53.401Z,0.98
2022-12-28T22:19:16.781Z,1.00
2022-12-28T22:21:40.071Z,1.05
2022-12-28T22:24:05.158Z,1.13
2022-12-28T22:26:28.469Z,1.10
2022-12-28T22:28:52.030Z,1.00
2022-12-28T22:31:15.400Z,0.90
2022-12-28T22:33:38.888Z,1.08
2022-12-28T22:36:11.017Z,1.15
2022-12-28T22:38:34.496Z,1.00
2022-12-28T22:41:00.158Z,1.10
2022-12-28T22:43:23.536Z,1.10
2022-12-28T22:45:46.952Z,0.88
2022-12-28T22:48:10.318Z,1.20
2022-12-28T22:50:38.192Z,0.90
2022-12-28T22:53:04.712Z,0.90
2022-12-28T22:55:27.962Z,1.30
2022-12-28T22:57:52.597Z,1.00
2022-12-28T23:00:16.402Z,0.93
2022-12-28T23:02:39.906Z,0.98
2022-12-28T23:05:03.365Z,0.80
2022-12-28T23:07:26.677Z,0.80
2022-12-28T23:09:49.886Z,0.80
2022-12-28T23:12:13.154Z,0.85
2022-12-28T23:15:07.040Z,0.85
2022-12-28T23:17:30.519Z,0.70
2022-12-28T23:20:11.818Z,1.05
2022-12-28T23:23:05.900Z,0.70
2022-12-28T23:25:46.844Z,0.80
2022-12-28T23:28:12.738Z,0.70
2022-12-28T23:30:39.911Z,0.60
2022-12-28T23:33:03.419Z,0.80
2022-12-28T23:35:27.866Z,0.70
2022-12-28T23:37:51.619Z,0.90
2022-12-28T23:40:17.479Z,0.93
2022-12-28T23:42:42.195Z,1.00
2022-12-28T23:45:07.674Z,0.70
2022-12-28T23:47:32.461Z,0.70
2022-12-28T23:49:55.752Z,0.70
2022-12-28T23:52:25.394Z,0.80
2022-12-28T23:54:49.211Z,0.70
2022-12-28T23:57:12.440Z,0.80
2022-12-28T23:59:35.736Z,0.98
